Time;durP1;ratioP1;P1;durP2;ratioP2;P2;SDS_P1;SDS_P2;PMS_P1;PMS_P2;Temp;Humidity;BMP_temperature;BMP_pressure;BME280_temperature;BME280_humidity;BME280_pressure;Samples;Min_cycle;Max_cycle;Signal;HPM_P1;HPM_P2
2024/03/29 01:44:06;;;;;;;;;;;;;;;;;;5053377;28;20296;-74
2024/03/29 01:46:33;;;;;;;;;;;;;;;;;;5048180;28;19969;-75
2024/03/29 01:49:00;;;;;;;;;;;;;;;;;;5051778;28;19933;-74
2024/03/29 01:51:27;;;;;;;;;;;;;;;;;;5053278;28;19928;-75
2024/03/29 01:53:54;;;;;;;;;;;;;;;;;;5051187;28;19971;-75
2024/03/29 01:56:21;;;;;;;;;;;;;;;;;;5042375;28;19982;-74
2024/03/29 01:58:48;;;;;;;;;;;;;;;;;;5033347;28;19951;-75
2024/03/29 02:01:16;;;;;;;;;;;;;;;;;;5032933;28;19933;-75
2024/03/29 02:03:43;;;;;;;;;;;;;;;;;;5049242;28;19976;-75
2024/03/29 02:06:12;;;;;;;;;;;;;;;;;;5052057;28;20736;-75
2024/03/29 02:08:39;;;;;;;;;;;;;;;;;;5052328;28;20327;-75
2024/03/29 02:11:06;;;;;;;;;;;;;;;;;;5053001;28;19959;-75
2024/03/29 02:13:33;;;;;;;;;;;;;;;;;;5045321;28;20439;-75
2024/03/29 02:16:00;;;;;;;;;;;;;;;;;;5051394;28;19982;-75
2024/03/29 02:18:27;;;;;;;;;;;;;;;;;;5052634;28;19930;-75
2024/03/29 02:20:54;;;;;;;;;;;;;;;;;;5052284;28;20380;-74
2024/03/29 02:23:21;;;;;;;;;;;;;;;;;;5051077;28;19929;-74
2024/03/29 02:25:48;;;;;;;;;;;;;;;;;;5048635;28;19990;-74
2024/03/29 02:28:15;;;;;;;;;;;;;;;;;;5052185;28;19940;-74
2024/03/29 02:30:43;;;;;;;;;;;;;;;;;;5052605;28;20048;-75
2024/03/29 02:33:10;;;;;;;;;;;;;;;;;;5051691;28;20400;-75
2024/03/29 02:35:37;;;;;;;;;;;;;;;;;;5052410;28;20026;-75
2024/03/29 02:38:04;;;;;;;;;;;;;;;;;;5051998;28;20438;-75
2024/03/29 02:40:31;;;;;;;;;;;;;;;;;;5052558;28;19928;-74
2024/03/29 02:42:58;;;;;;;;;;;;;;;;;;5051871;28;19940;-74
2024/03/29 02:45:25;;;;;;;;;;;;;;;;;;5052039;28;19966;-75
2024/03/29 02:47:51;;;;;;;;;;;;;;;;;;5052120;28;20005;-75
2024/03/29 02:50:18;;;;;;;;;;;;;;;;;;5052304;28;19958;-75
2024/03/29 02:52:44;;;;;;;;;;;;;;;;;;5051838;28;20430;-75
2024/03/29 02:55:11;;;;;;;;;;;;;;;;;;5051858;28;19936;-76
2024/03/29 02:57:37;;;;;;;;;;;;;;;;;;5050392;28;19968;-76
2024/03/29 03:00:04;;;;;;;;;;;;;;;;;;5052020;28;20449;-76
2024/03/29 03:02:30;;;;;;;;;;;;;;;;;;5050691;28;19929;-76
2024/03/29 03:04:59;;;;;;;;;;;;;;;;;;5055504;28;19979;-76
2024/03/29 03:12:55;;;;;;;;;;;;;;;;;;5051999;28;19923;-76
2024/03/29 03:15:22;;;;;;;;;;;;;;;;;;5040860;28;19932;-76
2024/03/29 03:17:49;;;;;;;;;;;;;;;;;;5037570;28;19933;-76
2024/03/29 03:20:16;;;;;;;;;;;;;;;;;;5046825;28;19971;-76
2024/03/29 03:22:43;;;;;;;;;;;;;;;;;;5045177;28;20368;-76
2024/03/29 03:25:09;;;;;;;;;;;;;;;;;;5046996;28;19953;-76
2024/03/29 03:27:36;;;;;;;;;;;;;;;;;;5047609;28;20007;-78
2024/03/29 03:30:02;;;;;;;;;;;;;;;;;;5050331;28;20380;-77
2024/03/29 03:32:29;;;;;;;;;;;;;;;;;;5051938;28;20315;-77
2024/03/29 03:34:55;;;;;;;;;;;;;;;;;;5051771;28;20407;-76
2024/03/29 03:37:22;;;;;;;;;;;;;;;;;;5051998;28;19929;-76
2024/03/29 03:39:48;;;;;;;;;;;;;;;;;;5050394;28;19929;-76
2024/03/29 03:42:15;;;;;;;;;;;;;;;;;;5051333;28;19933;-76
2024/03/29 03:44:41;;;;;;;;;;;;;;;;;;5051691;28;19990;-77
2024/03/29 03:47:08;;;;;;;;;;;;;;;;;;5051259;28;19982;-77
2024/03/29 03:49:34;;;;;;;;;;;;;;;;;;5051835;28;20334;-77
2024/03/29 03:52:02;;;;;;;;;;;;;;;;;;5051644;28;19929;-77
2024/03/29 03:54:29;;;;;;;;;;;;;;;;;;5051990;28;20291;-76
2024/03/29 03:56:56;;;;;;;;;;;;;;;;;;5044921;28;20320;-76
2024/03/29 03:59:22;;;;;;;;;;;;;;;;;;5045157;28;19929;-76
2024/03/29 04:01:51;;;;;;;;;;;;;;;;;;5051842;28;20003;-77
2024/03/29 04:04:17;;;;;;;;;;;;;;;;;;5051132;28;19929;-77
2024/03/29 04:06:44;;;;;;;;;;;;;;;;;;5052287;28;19929;-73
2024/03/29 04:09:10;;;;;;;;;;;;;;;;;;5058102;28;19959;-77
2024/03/29 04:11:38;;;;;;;;;;;;;;;;;;5066200;28;20280;-78
2024/03/29 04:14:04;;;;;;;;;;;;;;;;;;5075664;28;19935;-75
2024/03/29 04:16:31;;;;;;;;;;;;;;;;;;5074344;28;20318;-77
2024/03/29 04:18:57;;;;;;;;;;;;;;;;;;5056340;28;20006;-77
2024/03/29 04:21:24;;;;;;;;;;;;;;;;;;5051136;28;20307;-77
2024/03/29 04:23:50;;;;;;;;;;;;;;;;;;5052532;28;19971;-76
2024/03/29 04:26:17;;;;;;;;;;;;;;;;;;5054069;28;19933;-77
2024/03/29 04:28:43;;;;;;;;;;;;;;;;;;5058272;28;19970;-77
2024/03/29 04:31:10;;;;;;;;;;;;;;;;;;5073926;28;19936;-76
2024/03/29 04:33:36;;;;;;;;;;;;;;;;;;5074645;28;19928;-77
2024/03/29 04:36:03;;;;;;;;;;;;;;;;;;5058267;28;19968;-77
2024/03/29 04:38:30;;;;;;;;;;;;;;;;;;5052193;28;19932;-77
2024/03/29 04:40:58;;;;;;;;;;;;;;;;;;5034764;28;19929;-77
2024/03/29 04:43:25;;;;;;;;;;;;;;;;;;5054600;28;19932;-77
2024/03/29 04:45:52;;;;;;;;;;;;;;;;;;5055386;28;19928;-77
2024/03/29 04:48:19;;;;;;;;;;;;;;;;;;5054166;28;19929;-76
2024/03/29 04:50:46;;;;;;;;;;;;;;;;;;5054708;28;19999;-76
2024/03/29 04:53:14;;;;;;;;;;;;;;;;;;5054484;28;20409;-76
2024/03/29 04:55:42;;;;;;;;;;;;;;;;;;5048946;28;19945;-76
2024/03/29 04:58:09;;;;;;;;;;;;;;;;;;5053908;28;19936;-77
2024/03/29 05:00:36;;;;;;;;;;;;;;;;;;5054161;28;19941;-76
2024/03/29 05:03:03;;;;;;;;;;;;;;;;;;5059891;28;19929;-76
2024/03/29 05:05:30;;;;;;;;;;;;;;;;;;5074526;28;20356;-76
2024/03/29 05:07:57;;;;;;;;;;;;;;;;;;5058888;28;19929;-76
2024/03/29 05:10:24;;;;;;;;;;;;;;;;;;5059098;28;20014;-76
2024/03/29 05:12:51;;;;;;;;;;;;;;;;;;5056230;28;20342;-76
2024/03/29 05:15:18;;;;;;;;;;;;;;;;;;5054601;28;19976;-77
2024/03/29 05:17:45;;;;;;;;;;;;;;;;;;5053306;28;19929;-77
2024/03/29 05:20:12;;;;;;;;;;;;;;;;;;5052944;28;19929;-77
2024/03/29 05:22:39;;;;;;;;;;;;;;;;;;5051757;28;20449;-77
2024/03/29 05:25:07;;;;;;;;;;;;;;;;;;5049635;28;20441;-77
2024/03/29 05:27:34;;;;;;;;;;;;;;;;;;5053662;28;19929;-76
2024/03/29 05:30:02;;;;;;;;;;;;;;;;;;5052706;28;19941;-77
2024/03/29 05:32:29;;;;;;;;;;;;;;;;;;5053542;28;19956;-76
2024/03/29 05:34:56;;;;;;;;;;;;;;;;;;5048601;28;19947;-76
2024/03/29 05:37:25;;;;;;;;;;;;;;;;;;5054967;28;19933;-76
2024/03/29 05:39:58;;;;;;;;;;;;;;;;;;5049149;28;19928;-74
2024/03/29 05:42:25;;;;;;;;;;;;;;;;;;5050159;28;19929;-74
2024/03/29 05:44:52;;;;;;;;;;;;;;;;;;5043398;28;19994;-74
2024/03/29 05:47:19;;;;;;;;;;;;;;;;;;5051349;28;19968;-74
2024/03/29 05:49:47;;;;;;;;;;;;;;;;;;5061215;28;20014;-74
2024/03/29 05:52:14;;;;;;;;;;;;;;;;;;5063923;28;20463;-74
2024/03/29 05:54:41;;;;;;;;;;;;;;;;;;5056459;28;20021;-73
2024/03/29 05:57:08;;;;;;;;;;;;;;;;;;5042910;28;19963;-73
2024/03/29 05:59:35;;;;;;;;;;;;;;;;;;5038088;28;19936;-75
2024/03/29 06:02:02;;;;;;;;;;;;;;;;;;5043944;28;20015;-74
2024/03/29 06:04:32;;;;;;;;;;;;;;;;;;5042057;28;20383;-74
2024/03/29 06:06:59;;;;;;;;;;;;;;;;;;5049390;28;19981;-74
2024/03/29 06:09:26;;;;;;;;;;;;;;;;;;5048808;28;20374;-74
2024/03/29 06:11:53;;;;;;;;;;;;;;;;;;5041010;28;19933;-74
2024/03/29 06:17:24;;;;;;;;;;;;;;;;;;5038241;28;19932;-73
2024/03/29 06:19:51;;;;;;;;;;;;;;;;;;5041715;28;20014;-75
2024/03/29 06:22:18;;;;;;;;;;;;;;;;;;5046652;28;19929;-74
2024/03/29 06:24:46;;;;;;;;;;;;;;;;;;5045040;28;19933;-75
2024/03/29 06:27:16;;;;;;;;;;;;;;;;;;5047955;28;20024;-75
2024/03/29 06:29:43;;;;;;;;;;;;;;;;;;5039485;28;19987;-75
2024/03/29 06:32:10;;;;;;;;;;;;;;;;;;5043676;28;19929;-74
2024/03/29 06:34:37;;;;;;;;;;;;;;;;;;5042693;28;20011;-75
2024/03/29 06:37:04;;;;;;;;;;;;;;;;;;5039540;28;19983;-73
2024/03/29 06:39:32;;;;;;;;;;;;;;;;;;5044705;28;19987;-74
2024/03/29 06:41:59;;;;;;;;;;;;;;;;;;5047625;28;19983;-74
2024/03/29 06:44:26;;;;;;;;;;;;;;;;;;5049046;28;19929;-74
2024/03/29 06:46:53;;;;;;;;;;;;;;;;;;5045384;28;19933;-74
2024/03/29 06:49:20;;;;;;;;;;;;;;;;;;5048966;28;19982;-75
2024/03/29 06:51:48;;;;;;;;;;;;;;;;;;5046636;28;19928;-74
2024/03/29 06:54:15;;;;;;;;;;;;;;;;;;5048030;28;19990;-74
2024/03/29 06:56:42;;;;;;;;;;;;;;;;;;5049752;28;20023;-75
2024/03/29 06:59:09;;;;;;;;;;;;;;;;;;5042252;28;19929;-74
2024/03/29 07:01:36;;;;;;;;;;;;;;;;;;5049151;28;19935;-75
2024/03/29 07:04:03;;;;;;;;;;;;;;;;;;5045005;28;19956;-75
2024/03/29 07:06:30;;;;;;;;;;;;;;;;;;5038211;28;20404;-75
2024/03/29 07:08:57;;;;;;;;;;;;;;;;;;5043673;28;19959;-75
2024/03/29 07:11:24;;;;;;;;;;;;;;;;;;5041204;28;19929;-75
2024/03/29 07:13:51;;;;;;;;;;;;;;;;;;5031202;28;20002;-75
2024/03/29 07:16:18;;;;;;;;;;;;;;;;;;5042561;28;19972;-76
2024/03/29 07:18:45;;;;;;;;;;;;;;;;;;5050553;28;20493;-76
2024/03/29 07:21:12;;;;;;;;;;;;;;;;;;5048720;28;19986;-77
2024/03/29 07:23:39;;;;;;;;;;;;;;;;;;5043673;28;19968;-75
2024/03/29 07:26:06;;;;;;;;;;;;;;;;;;5040473;28;20399;-75
2024/03/29 07:28:33;;;;;;;;;;;;;;;;;;5036517;28;19978;-74
2024/03/29 07:31:00;;;;;;;;;;;;;;;;;;5044623;28;19990;-76
2024/03/29 07:33:28;;;;;;;;;;;;;;;;;;5044275;28;20006;-76
2024/03/29 07:35:55;;;;;;;;;;;;;;;;;;5048362;28;19928;-75
2024/03/29 07:38:23;;;;;;;;;;;;;;;;;;5052070;28;19975;-74
2024/03/29 07:40:50;;;;;;;;;;;;;;;;;;5041644;28;20315;-73
2024/03/29 07:43:17;;;;;;;;;;;;;;;;;;5048282;28;19971;-74
2024/03/29 07:45:44;;;;;;;;;;;;;;;;;;5046119;28;19960;-74
2024/03/29 07:48:11;;;;;;;;;;;;;;;;;;5051472;28;20027;-74
2024/03/29 07:50:38;;;;;;;;;;;;;;;;;;5052659;28;19982;-74
2024/03/29 07:53:05;;;;;;;;;;;;;;;;;;5044509;28;19928;-77
2024/03/29 07:55:32;;;;;;;;;;;;;;;;;;5049289;28;19929;-75
2024/03/29 07:57:59;;;;;;;;;;;;;;;;;;5041825;28;20404;-74
2024/03/29 08:00:26;;;;;;;;;;;;;;;;;;5045256;28;19983;-76
2024/03/29 08:02:53;;;;;;;;;;;;;;;;;;5044504;28;19975;-76
2024/03/29 08:05:20;;;;;;;;;;;;;;;;;;5045502;28;20033;-76
2024/03/29 08:07:47;;;;;;;;;;;;;;;;;;5052547;28;19933;-77
2024/03/29 08:10:14;;;;;;;;;;;;;;;;;;5047097;28;20586;-74
2024/03/29 08:12:41;;;;;;;;;;;;;;;;;;5043480;28;19963;-73
2024/03/29 08:15:08;;;;;;;;;;;;;;;;;;5047317;28;19929;-73
2024/03/29 08:17:35;;;;;;;;;;;;;;;;;;5033309;28;19991;-74
2024/03/29 08:20:02;;;;;;;;;;;;;;;;;;5045611;28;19984;-75
2024/03/29 08:22:32;;;;;;;;;;;;;;;;;;5050428;28;19936;-75
2024/03/29 08:24:59;;;;;;;;;;;;;;;;;;5051859;28;20002;-74
2024/03/29 08:27:26;;;;;;;;;;;;;;;;;;5053291;28;20016;-75
2024/03/29 08:29:53;;;;;;;;;;;;;;;;;;5044480;28;20021;-74
2024/03/29 08:32:20;;;;;;;;;;;;;;;;;;5051718;28;19929;-75
2024/03/29 08:34:47;;;;;;;;;;;;;;;;;;5043220;28;19929;-76
2024/03/29 08:37:14;;;;;;;;;;;;;;;;;;5051578;28;19929;-74
2024/03/29 08:39:41;;;;;;;;;;;;;;;;;;5049973;28;19975;-75
2024/03/29 08:42:11;;;;;;;;;;;;;;;;;;5052419;28;19929;-75
2024/03/29 08:44:38;;;;;;;;;;;;;;;;;;5054484;28;20292;-75
2024/03/29 08:47:05;;;;;;;;;;;;;;;;;;5041278;28;19944;-75
2024/03/29 08:49:32;;;;;;;;;;;;;;;;;;5047948;28;20066;-75
2024/03/29 08:52:04;;;;;;;;;;;;;;;;;;5040058;28;20060;-74
2024/03/29 08:54:31;;;;;;;;;;;;;;;;;;5039653;28;19935;-74
2024/03/29 08:57:01;;;;;;;;;;;;;;;;;;5045001;28;20011;-75
2024/03/29 08:59:28;;;;;;;;;;;;;;;;;;5031551;28;20346;-74
2024/03/29 09:01:55;;;;;;;;;;;;;;;;;;5046339;28;20341;-77
2024/03/29 09:04:24;;;;;;;;;;;;;;;;;;5051273;28;20407;-73
2024/03/29 09:06:52;;;;;;;;;;;;;;;;;;5044705;28;19929;-77
2024/03/29 09:09:20;;;;;;;;;;;;;;;;;;5031756;28;19928;-75
2024/03/29 09:11:47;;;;;;;;;;;;;;;;;;5034819;28;20008;-77
2024/03/29 09:14:14;;;;;;;;;;;;;;;;;;5041756;28;20403;-75
2024/03/29 09:16:41;;;;;;;;;;;;;;;;;;5039017;28;20308;-74
2024/03/29 09:19:08;;;;;;;;;;;;;;;;;;5057052;28;20384;-75
2024/03/29 09:21:35;;;;;;;;;;;;;;;;;;5035656;28;20025;-75
2024/03/29 09:24:02;;;;;;;;;;;;;;;;;;5042198;28;19960;-75
2024/03/29 09:26:29;;;;;;;;;;;;;;;;;;5034236;28;19990;-76
2024/03/29 09:28:56;;;;;;;;;;;;;;;;;;5037004;28;19936;-74
2024/03/29 09:31:24;;;;;;;;;;;;;;;;;;5045100;28;19976;-73
2024/03/29 09:33:52;;;;;;;;;;;;;;;;;;5047774;28;19928;-75
2024/03/29 09:36:19;;;;;;;;;;;;;;;;;;5064142;28;19939;-74
2024/03/29 09:38:46;;;;;;;;;;;;;;;;;;5050118;28;19928;-74
2024/03/29 09:41:14;;;;;;;;;;;;;;;;;;5050144;28;20471;-74
2024/03/29 09:43:41;;;;;;;;;;;;;;;;;;5033126;28;20211;-75
2024/03/29 09:46:08;;;;;;;;;;;;;;;;;;5044188;28;20293;-75
2024/03/29 09:48:37;;;;;;;;;;;;;;;;;;5048148;28;20332;-75
2024/03/29 09:51:04;;;;;;;;;;;;;;;;;;5049757;28;20360;-75
2024/03/29 09:53:31;;;;;;;;;;;;;;;;;;5049128;28;19994;-75
2024/03/29 09:55:58;;;;;;;;;;;;;;;;;;5046778;28;19929;-75
2024/03/29 09:58:25;;;;;;;;;;;;;;;;;;5047883;28;20457;-75
2024/03/29 10:00:52;;;;;;;;;;;;;;;;;;5048840;28;19967;-75
2024/03/29 10:03:21;;;;;;;;;;;;;;;;;;5044728;28;19963;-75
2024/03/29 10:05:48;;;;;;;;;;;;;;;;;;5047644;28;19958;-75
2024/03/29 10:08:15;;;;;;;;;;;;;;;;;;5036523;28;19987;-75
2024/03/29 10:10:42;;;;;;;;;;;;;;;;;;5035969;28;19929;-75
2024/03/29 10:13:09;;;;;;;;;;;;;;;;;;5038463;28;20404;-75
2024/03/29 10:15:38;;;;;;;;;;;;;;;;;;5036807;28;19961;-74
2024/03/29 10:18:05;;;;;;;;;;;;;;;;;;5043483;28;19928;-74
2024/03/29 10:20:32;;;;;;;;;;;;;;;;;;5049378;28;20396;-73
2024/03/29 10:23:02;;;;;;;;;;;;;;;;;;5039574;28;19972;-73
2024/03/29 10:25:29;;;;;;;;;;;;;;;;;;5046248;28;20333;-73
2024/03/29 10:27:56;;;;;;;;;;;;;;;;;;5049203;28;20423;-73
2024/03/29 10:30:23;;;;;;;;;;;;;;;;;;5045080;28;19933;-71
2024/03/29 10:32:51;;;;;;;;;;;;;;;;;;5042427;28;19967;-67
2024/03/29 10:35:18;;;;;;;;;;;;;;;;;;5034958;28;20432;-72
2024/03/29 10:37:45;;;;;;;;;;;;;;;;;;5041559;28;20058;-73
2024/03/29 10:40:15;;;;;;;;;;;;;;;;;;5046430;28;19980;-72
2024/03/29 10:42:42;;;;;;;;;;;;;;;;;;5048247;28;19928;-73
2024/03/29 10:45:09;;;;;;;;;;;;;;;;;;5049400;28;19972;-72
2024/03/29 10:47:36;;;;;;;;;;;;;;;;;;5049090;28;19952;-73
2024/03/29 10:50:05;;;;;;;;;;;;;;;;;;5049293;28;19976;-73
2024/03/29 10:52:32;;;;;;;;;;;;;;;;;;5048532;28;19973;-68
2024/03/29 10:54:59;;;;;;;;;;;;;;;;;;5047925;28;20277;-74
2024/03/29 10:57:26;;;;;;;;;;;;;;;;;;5031406;28;19929;-72
2024/03/29 10:59:53;;;;;;;;;;;;;;;;;;5048984;28;19964;-74
2024/03/29 11:02:20;;;;;;;;;;;;;;;;;;5041369;28;20454;-72
2024/03/29 11:04:47;;;;;;;;;;;;;;;;;;5029642;28;19940;-74
2024/03/29 11:07:14;;;;;;;;;;;;;;;;;;5029116;28;20408;-75
2024/03/29 11:09:42;;;;;;;;;;;;;;;;;;5027970;28;19991;-72
2024/03/29 11:12:09;;;;;;;;;;;;;;;;;;5036320;28;20383;-73
2024/03/29 11:14:36;;;;;;;;;;;;;;;;;;5044805;28;19975;-72
2024/03/29 11:17:03;;;;;;;;;;;;;;;;;;5053180;28;20101;-72
2024/03/29 11:19:30;;;;;;;;;;;;;;;;;;5051138;28;20371;-72
2024/03/29 11:21:57;;;;;;;;;;;;;;;;;;5046645;28;19928;-73
2024/03/29 11:24:26;;;;;;;;;;;;;;;;;;5049490;28;19982;-72
2024/03/29 11:26:53;;;;;;;;;;;;;;;;;;5045221;28;20412;-71
2024/03/29 11:29:20;;;;;;;;;;;;;;;;;;5036481;28;19933;-74
2024/03/29 11:31:51;;;;;;;;;;;;;;;;;;5039309;28;20028;-74
2024/03/29 11:34:18;;;;;;;;;;;;;;;;;;5034125;28;19936;-72
2024/03/29 11:36:45;;;;;;;;;;;;;;;;;;5043984;28;20084;-73
2024/03/29 11:39:12;;;;;;;;;;;;;;;;;;5047746;28;20031;-73
2024/03/29 11:41:39;;;;;;;;;;;;;;;;;;5038714;28;20040;-74
2024/03/29 11:44:07;;;;;;;;;;;;;;;;;;5041740;28;19991;-73
2024/03/29 11:46:35;;;;;;;;;;;;;;;;;;5047618;28;19935;-73
2024/03/29 11:49:03;;;;;;;;;;;;;;;;;;5047029;28;19928;-73
2024/03/29 11:51:30;;;;;;;;;;;;;;;;;;5042309;28;19928;-75
2024/03/29 11:53:57;;;;;;;;;;;;;;;;;;5034313;28;19964;-73
2024/03/29 11:56:24;;;;;;;;;;;;;;;;;;5036059;28;19929;-74
2024/03/29 11:58:53;;;;;;;;;;;;;;;;;;5047066;28;19928;-73
2024/03/29 12:01:20;;;;;;;;;;;;;;;;;;5033623;28;19976;-73
2024/03/29 12:03:47;;;;;;;;;;;;;;;;;;5041796;28;19983;-73
2024/03/29 12:06:14;;;;;;;;;;;;;;;;;;5039221;28;19929;-73
2024/03/29 12:08:42;;;;;;;;;;;;;;;;;;5052457;28;19944;-73
2024/03/29 12:11:09;;;;;;;;;;;;;;;;;;5047550;28;19929;-72
2024/03/29 12:13:36;;;;;;;;;;;;;;;;;;5048824;28;20017;-72
2024/03/29 12:16:04;;;;;;;;;;;;;;;;;;5045768;28;19964;-72
2024/03/29 12:18:31;;;;;;;;;;;;;;;;;;5031910;28;19929;-73
2024/03/29 12:20:58;;;;;;;;;;;;;;;;;;5036600;28;20331;-73
2024/03/29 12:23:25;;;;;;;;;;;;;;;;;;5044522;28;19986;-73
2024/03/29 12:25:52;;;;;;;;;;;;;;;;;;5033934;28;19974;-68
2024/03/29 12:28:19;;;;;;;;;;;;;;;;;;5028579;28;19929;-73
2024/03/29 12:30:46;;;;;;;;;;;;;;;;;;5042854;28;19960;-72
2024/03/29 12:33:14;;;;;;;;;;;;;;;;;;5046584;28;19974;-73
2024/03/29 12:35:42;;;;;;;;;;;;;;;;;;5049605;28;20007;-74
2024/03/29 12:38:09;;;;;;;;;;;;;;;;;;5044112;28;19933;-73
2024/03/29 12:40:37;;;;;;;;;;;;;;;;;;5044739;28;19929;-71
2024/03/29 12:43:05;;;;;;;;;;;;;;;;;;5042825;28;20340;-72
2024/03/29 12:45:32;;;;;;;;;;;;;;;;;;5040347;28;20024;-72
2024/03/29 12:47:59;;;;;;;;;;;;;;;;;;5041581;28;20047;-73
2024/03/29 12:50:27;;;;;;;;;;;;;;;;;;5038942;28;20368;-73
2024/03/29 12:52:54;;;;;;;;;;;;;;;;;;5041080;28;20028;-73
2024/03/29 12:55:21;;;;;;;;;;;;;;;;;;5040589;28;20016;-74
2024/03/29 12:57:48;;;;;;;;;;;;;;;;;;5043402;28;20058;-74
2024/03/29 13:00:15;;;;;;;;;;;;;;;;;;5043097;28;20039;-75
2024/03/29 13:02:43;;;;;;;;;;;;;;;;;;5033581;28;19929;-75
2024/03/29 13:05:10;;;;;;;;;;;;;;;;;;5032294;28;19968;-71
2024/03/29 13:07:37;;;;;;;;;;;;;;;;;;5048396;28;19984;-75
2024/03/29 13:10:10;;;;;;;;;;;;;;;;;;5031855;28;19928;-74
2024/03/29 13:12:38;;;;;;;;;;;;;;;;;;5032378;28;20335;-76
2024/03/29 13:15:05;;;;;;;;;;;;;;;;;;5032767;28;19979;-75
2024/03/29 13:17:32;;;;;;;;;;;;;;;;;;5048372;28;19999;-72
2024/03/29 13:19:59;;;;;;;;;;;;;;;;;;5058345;28;19983;-74
2024/03/29 13:22:26;;;;;;;;;;;;;;;;;;5045265;28;19963;-74
2024/03/29 13:24:53;;;;;;;;;;;;;;;;;;5040375;28;19936;-75
2024/03/29 13:27:20;;;;;;;;;;;;;;;;;;5048039;28;20042;-73
2024/03/29 13:29:48;;;;;;;;;;;;;;;;;;5047318;28;19933;-74
2024/03/29 13:32:15;;;;;;;;;;;;;;;;;;5046310;28;20031;-73
2024/03/29 13:34:42;;;;;;;;;;;;;;;;;;5049555;28;19980;-73
2024/03/29 13:37:09;;;;;;;;;;;;;;;;;;5051379;28;19951;-73
2024/03/29 13:39:36;;;;;;;;;;;;;;;;;;5052313;28;19936;-72
2024/03/29 13:42:03;;;;;;;;;;;;;;;;;;5042553;28;19955;-72
2024/03/29 13:44:30;;;;;;;;;;;;;;;;;;5043305;28;19976;-74
2024/03/29 13:46:58;;;;;;;;;;;;;;;;;;5046394;28;19934;-74
2024/03/29 13:49:25;;;;;;;;;;;;;;;;;;5043316;28;19933;-74
2024/03/29 13:51:52;;;;;;;;;;;;;;;;;;5048627;28;19929;-74
2024/03/29 13:54:19;;;;;;;;;;;;;;;;;;5045033;28;19933;-73
2024/03/29 13:56:46;;;;;;;;;;;;;;;;;;5036247;28;19933;-73
2024/03/29 13:59:13;;;;;;;;;;;;;;;;;;5047651;28;19928;-72
2024/03/29 14:01:40;;;;;;;;;;;;;;;;;;5041084;28;19960;-71
2024/03/29 14:04:07;;;;;;;;;;;;;;;;;;5048629;28;20029;-71
2024/03/29 14:06:34;;;;;;;;;;;;;;;;;;5043520;28;19939;-72
2024/03/29 14:09:02;;;;;;;;;;;;;;;;;;5040414;28;19933;-72
2024/03/29 14:11:29;;;;;;;;;;;;;;;;;;5049336;28;20028;-72
2024/03/29 14:13:56;;;;;;;;;;;;;;;;;;5040941;28;20018;-74
2024/03/29 14:16:23;;;;;;;;;;;;;;;;;;5046311;28;19935;-74
2024/03/29 14:18:50;;;;;;;;;;;;;;;;;;5049279;28;19996;-74
2024/03/29 14:21:17;;;;;;;;;;;;;;;;;;5044687;28;19983;-73
2024/03/29 14:23:44;;;;;;;;;;;;;;;;;;5037601;28;21457;-70
2024/03/29 14:26:11;;;;;;;;;;;;;;;;;;5036335;28;19960;-70
2024/03/29 14:28:38;;;;;;;;;;;;;;;;;;5037221;28;19994;-74
2024/03/29 14:31:05;;;;;;;;;;;;;;;;;;5039240;28;19957;-74
2024/03/29 14:33:33;;;;;;;;;;;;;;;;;;5032695;28;19929;-74
2024/03/29 14:36:00;;;;;;;;;;;;;;;;;;5044998;28;19928;-73
2024/03/29 14:38:27;;;;;;;;;;;;;;;;;;5036190;28;19972;-73
2024/03/29 14:40:55;;;;;;;;;;;;;;;;;;5043769;28;19974;-73
2024/03/29 14:43:22;;;;;;;;;;;;;;;;;;5039789;28;19971;-73
2024/03/29 14:45:49;;;;;;;;;;;;;;;;;;5040653;28;19928;-74
2024/03/29 14:48:18;;;;;;;;;;;;;;;;;;5040364;28;19932;-73
2024/03/29 14:50:45;;;;;;;;;;;;;;;;;;5039957;28;19968;-73
2024/03/29 14:53:12;;;;;;;;;;;;;;;;;;5038662;28;19936;-73
2024/03/29 14:55:40;;;;;;;;;;;;;;;;;;5036833;28;20044;-73
2024/03/29 14:58:07;;;;;;;;;;;;;;;;;;5037218;28;19925;-73
2024/03/29 15:00:34;;;;;;;;;;;;;;;;;;5038859;28;19982;-74
2024/03/29 15:03:01;;;;;;;;;;;;;;;;;;5040996;28;19929;-74
2024/03/29 15:05:28;;;;;;;;;;;;;;;;;;5041549;28;19934;-72
2024/03/29 15:07:55;;;;;;;;;;;;;;;;;;5041496;28;19941;-73
2024/03/29 15:10:23;;;;;;;;;;;;;;;;;;5041190;28;19968;-72
2024/03/29 15:12:50;;;;;;;;;;;;;;;;;;5037613;28;19929;-72
2024/03/29 15:15:18;;;;;;;;;;;;;;;;;;5047759;28;20022;-72
2024/03/29 15:17:46;;;;;;;;;;;;;;;;;;5044708;28;19928;-72
2024/03/29 15:20:13;;;;;;;;;;;;;;;;;;5040093;28;19929;-72
2024/03/29 15:22:40;;;;;;;;;;;;;;;;;;5049692;28;20008;-72
2024/03/29 15:25:07;;;;;;;;;;;;;;;;;;5051662;28;19998;-72
2024/03/29 15:30:18;;;;;;;;;;;;;;;;;;5040389;28;19982;-73
2024/03/29 15:32:45;;;;;;;;;;;;;;;;;;5041757;28;19972;-73
2024/03/29 15:35:11;;;;;;;;;;;;;;;;;;5042913;28;19929;-73
2024/03/29 15:37:38;;;;;;;;;;;;;;;;;;5045455;28;20028;-74
2024/03/29 15:40:06;;;;;;;;;;;;;;;;;;5042045;28;19929;-74
2024/03/29 15:42:35;;;;;;;;;;;;;;;;;;5048671;28;19983;-74
2024/03/29 15:45:02;;;;;;;;;;;;;;;;;;5048041;28;20494;-74
2024/03/29 15:47:29;;;;;;;;;;;;;;;;;;5038923;28;19976;-74
2024/03/29 15:49:56;;;;;;;;;;;;;;;;;;5045948;28;20063;-73
2024/03/29 15:52:23;;;;;;;;;;;;;;;;;;5045003;28;19972;-74
2024/03/29 15:54:50;;;;;;;;;;;;;;;;;;5034177;28;20353;-76
2024/03/29 15:57:17;;;;;;;;;;;;;;;;;;5033428;28;20352;-74
2024/03/29 15:59:47;;;;;;;;;;;;;;;;;;5035533;28;19935;-75
2024/03/29 16:02:14;;;;;;;;;;;;;;;;;;5034953;28;19929;-74
2024/03/29 16:04:41;;;;;;;;;;;;;;;;;;5032836;28;19975;-73
2024/03/29 16:07:07;;;;;;;;;;;;;;;;;;5063200;28;20307;-75
2024/03/29 16:09:34;;;;;;;;;;;;;;;;;;5065623;28;20359;-75
2024/03/29 16:12:01;;;;;;;;;;;;;;;;;;5041682;28;19929;-75
2024/03/29 16:14:30;;;;;;;;;;;;;;;;;;5047276;28;19929;-72
2024/03/29 16:16:56;;;;;;;;;;;;;;;;;;5050528;28;20399;-73
2024/03/29 16:19:23;;;;;;;;;;;;;;;;;;5046680;28;20067;-73
2024/03/29 16:21:49;;;;;;;;;;;;;;;;;;5047351;28;19930;-73
2024/03/29 16:24:16;;;;;;;;;;;;;;;;;;5065833;28;19986;-74
2024/03/29 16:26:42;;;;;;;;;;;;;;;;;;5052301;28;19929;-74
2024/03/29 16:29:13;;;;;;;;;;;;;;;;;;5047880;28;19936;-75
2024/03/29 16:31:40;;;;;;;;;;;;;;;;;;5045018;28;20403;-73
2024/03/29 16:34:07;;;;;;;;;;;;;;;;;;5048728;28;19939;-74
2024/03/29 16:36:33;;;;;;;;;;;;;;;;;;5039100;28;19929;-74
2024/03/29 16:39:00;;;;;;;;;;;;;;;;;;5031792;28;19979;-75
2024/03/29 16:41:26;;;;;;;;;;;;;;;;;;5053300;28;20332;-73
2024/03/29 16:43:53;;;;;;;;;;;;;;;;;;5032174;28;20392;-73
2024/03/29 16:46:19;;;;;;;;;;;;;;;;;;5049342;28;19929;-74
2024/03/29 16:48:46;;;;;;;;;;;;;;;;;;5046279;28;19928;-74
2024/03/29 16:51:12;;;;;;;;;;;;;;;;;;5047196;28;20022;-74
2024/03/29 16:53:39;;;;;;;;;;;;;;;;;;5050538;28;19928;-74
2024/03/29 16:56:05;;;;;;;;;;;;;;;;;;5046769;28;19929;-74
2024/03/29 16:58:32;;;;;;;;;;;;;;;;;;5052114;28;19935;-74
2024/03/29 17:00:58;;;;;;;;;;;;;;;;;;5045000;28;19929;-74
2024/03/29 17:03:25;;;;;;;;;;;;;;;;;;5051420;28;20023;-74
2024/03/29 17:05:51;;;;;;;;;;;;;;;;;;5048933;28;20023;-74
2024/03/29 17:08:18;;;;;;;;;;;;;;;;;;5035535;28;19935;-74
2024/03/29 17:10:44;;;;;;;;;;;;;;;;;;5034597;28;19929;-73
2024/03/29 17:13:11;;;;;;;;;;;;;;;;;;5031597;28;19929;-74
2024/03/29 17:15:37;;;;;;;;;;;;;;;;;;5048869;28;20668;-75
2024/03/29 17:18:04;;;;;;;;;;;;;;;;;;5049100;28;20403;-74
2024/03/29 17:20:31;;;;;;;;;;;;;;;;;;5050403;28;19933;-73
2024/03/29 17:22:58;;;;;;;;;;;;;;;;;;5050431;28;19937;-74
2024/03/29 17:25:24;;;;;;;;;;;;;;;;;;5049239;28;19928;-74
2024/03/29 17:27:51;;;;;;;;;;;;;;;;;;5046405;28;19975;-73
2024/03/29 17:30:17;;;;;;;;;;;;;;;;;;5043172;28;19939;-73
2024/03/29 17:32:44;;;;;;;;;;;;;;;;;;5041352;28;19929;-73
2024/03/29 17:35:10;;;;;;;;;;;;;;;;;;5038262;28;19929;-74
2024/03/29 17:37:37;;;;;;;;;;;;;;;;;;5036012;28;19977;-74
2024/03/29 17:40:03;;;;;;;;;;;;;;;;;;5049406;28;19972;-73
2024/03/29 17:42:30;;;;;;;;;;;;;;;;;;5033416;28;19999;-74
2024/03/29 17:44:56;;;;;;;;;;;;;;;;;;5030960;28;20179;-74
2024/03/29 17:47:23;;;;;;;;;;;;;;;;;;5044683;28;20291;-73
2024/03/29 17:49:49;;;;;;;;;;;;;;;;;;5056028;28;19929;-73
2024/03/29 17:52:16;;;;;;;;;;;;;;;;;;5054762;28;20026;-73
2024/03/29 17:54:42;;;;;;;;;;;;;;;;;;5048045;28;19994;-74
2024/03/29 17:57:09;;;;;;;;;;;;;;;;;;5054820;28;19971;-74
2024/03/29 17:59:35;;;;;;;;;;;;;;;;;;5050626;28;20421;-73
2024/03/29 18:02:02;;;;;;;;;;;;;;;;;;5040143;28;20400;-73
2024/03/29 18:04:28;;;;;;;;;;;;;;;;;;5048678;28;19968;-74
2024/03/29 18:06:55;;;;;;;;;;;;;;;;;;5048089;28;19933;-74
2024/03/29 18:09:21;;;;;;;;;;;;;;;;;;5044704;28;19971;-74
2024/03/29 18:11:48;;;;;;;;;;;;;;;;;;5033266;28;19933;-74
2024/03/29 18:14:16;;;;;;;;;;;;;;;;;;5041256;28;19968;-74
2024/03/29 18:16:43;;;;;;;;;;;;;;;;;;5044887;28;19925;-74
2024/03/29 18:19:11;;;;;;;;;;;;;;;;;;5048583;28;22068;-74
2024/03/29 18:21:41;;;;;;;;;;;;;;;;;;5052338;28;19962;-74
2024/03/29 18:24:07;;;;;;;;;;;;;;;;;;5046601;28;20403;-73
2024/03/29 18:26:34;;;;;;;;;;;;;;;;;;5040331;28;19929;-72
2024/03/29 18:29:00;;;;;;;;;;;;;;;;;;5045038;28;19929;-72
2024/03/29 18:31:27;;;;;;;;;;;;;;;;;;5041900;28;19991;-74
2024/03/29 18:33:53;;;;;;;;;;;;;;;;;;5043904;28;20392;-72
2024/03/29 18:36:20;;;;;;;;;;;;;;;;;;5047963;28;19935;-72
2024/03/29 18:38:46;;;;;;;;;;;;;;;;;;5049500;28;20418;-73